sensor_id;sensor_type;location;lat;lon;timestamp;temperature;humidity
21950;DHT22;11139;51.284;7.226;2023-04-10T00:00:57;7.90;99.90
21950;DHT22;11139;51.284;7.226;2023-04-10T00:03:23;7.90;99.90
21950;DHT22;11139;51.284;7.226;2023-04-10T00:05:48;7.90;99.90
21950;DHT22;11139;51.284;7.226;2023-04-10T00:08:14;7.90;99.90
21950;DHT22;11139;51.284;7.226;2023-04-10T00:10:39;7.90;99.90
21950;DHT22;11139;51.284;7.226;2023-04-10T00:13:05;7.90;99.90
21950;DHT22;11139;51.284;7.226;2023-04-10T00:15:31;7.90;99.90
21950;DHT22;11139;51.284;7.226;2023-04-10T00:17:56;7.90;99.90
21950;DHT22;11139;51.284;7.226;2023-04-10T00:20:22;7.90;99.90
21950;DHT22;11139;51.284;7.226;2023-04-10T00:22:48;7.90;99.90
21950;DHT22;11139;51.284;7.226;2023-04-10T00:25:13;7.90;99.90
21950;DHT22;11139;51.284;7.226;2023-04-10T00:27:39;7.90;99.90
21950;DHT22;11139;51.284;7.226;2023-04-10T00:30:05;7.90;99.90
21950;DHT22;11139;51.284;7.226;2023-04-10T00:32:31;7.90;99.90
21950;DHT22;11139;51.284;7.226;2023-04-10T00:34:57;7.80;99.90
21950;DHT22;11139;51.284;7.226;2023-04-10T00:37:22;7.80;99.90
21950;DHT22;11139;51.284;7.226;2023-04-10T00:39:48;7.80;99.90
21950;DHT22;11139;51.284;7.226;2023-04-10T00:42:13;7.80;99.90
21950;DHT22;11139;51.284;7.226;2023-04-10T00:44:39;7.80;99.90
21950;DHT22;11139;51.284;7.226;2023-04-10T00:47:06;7.80;99.90
21950;DHT22;11139;51.284;7.226;2023-04-10T00:49:32;7.80;99.90
21950;DHT22;11139;51.284;7.226;2023-04-10T00:51:58;7.80;99.90
21950;DHT22;11139;51.284;7.226;2023-04-10T00:54:23;7.80;99.90
21950;DHT22;11139;51.284;7.226;2023-04-10T00:56:49;7.80;99.90
21950;DHT22;11139;51.284;7.226;2023-04-10T00:59:15;7.80;99.90
21950;DHT22;11139;51.284;7.226;2023-04-10T01:01:40;7.80;99.90
21950;DHT22;11139;51.284;7.226;2023-04-10T01:04:06;7.80;99.90
21950;DHT22;11139;51.284;7.226;2023-04-10T01:09:14;7.80;99.90
21950;DHT22;11139;51.284;7.226;2023-04-10T01:11:44;7.80;99.90
21950;DHT22;11139;51.284;7.226;2023-04-10T01:14:48;7.80;99.90
21950;DHT22;11139;51.284;7.226;2023-04-10T01:17:17;7.70;99.90
21950;DHT22;11139;51.284;7.226;2023-04-10T01:22:12;7.70;99.90
21950;DHT22;11139;51.284;7.226;2023-04-10T01:29:44;7.80;99.90
21950;DHT22;11139;51.284;7.226;2023-04-10T01:32:12;7.70;99.90
21950;DHT22;11139;51.284;7.226;2023-04-10T01:34:42;7.70;99.90
21950;DHT22;11139;51.284;7.226;2023-04-10T01:37:16;7.70;99.90
21950;DHT22;11139;51.284;7.226;2023-04-10T01:39:43;7.70;99.90
21950;DHT22;11139;51.284;7.226;2023-04-10T01:42:12;7.70;99.90
21950;DHT22;11139;51.284;7.226;2023-04-10T01:44:40;7.70;99.90
21950;DHT22;11139;51.284;7.226;2023-04-10T01:47:06;7.70;99.90
21950;DHT22;11139;51.284;7.226;2023-04-10T01:49:32;7.70;99.90
21950;DHT22;11139;51.284;7.226;2023-04-10T01:51:59;7.70;99.90
21950;DHT22;11139;51.284;7.226;2023-04-10T01:54:25;7.70;99.90
21950;DHT22;11139;51.284;7.226;2023-04-10T01:56:51;7.70;99.90
21950;DHT22;11139;51.284;7.226;2023-04-10T01:59:17;7.60;99.90
21950;DHT22;11139;51.284;7.226;2023-04-10T02:01:42;7.70;99.90
21950;DHT22;11139;51.284;7.226;2023-04-10T02:04:08;7.60;99.90
21950;DHT22;11139;51.284;7.226;2023-04-10T02:06:43;7.60;99.90
21950;DHT22;11139;51.284;7.226;2023-04-10T02:09:58;7.60;99.90
21950;DHT22;11139;51.284;7.226;2023-04-10T02:12:05;7.60;99.90
21950;DHT22;11139;51.284;7.226;2023-04-10T02:14:31;7.70;99.90
21950;DHT22;11139;51.284;7.226;2023-04-10T02:16:58;7.60;99.90
21950;DHT22;11139;51.284;7.226;2023-04-10T02:19:25;7.60;99.90
21950;DHT22;11139;51.284;7.226;2023-04-10T02:21:51;7.60;99.90
21950;DHT22;11139;51.284;7.226;2023-04-10T02:24:18;7.60;99.90
21950;DHT22;11139;51.284;7.226;2023-04-10T02:26:51;7.60;99.90
21950;DHT22;11139;51.284;7.226;2023-04-10T02:29:16;7.60;99.90
21950;DHT22;11139;51.284;7.226;2023-04-10T02:31:42;7.60;99.90
21950;DHT22;11139;51.284;7.226;2023-04-10T02:34:08;7.60;99.90
21950;DHT22;11139;51.284;7.226;2023-04-10T02:36:35;7.60;99.90
21950;DHT22;11139;51.284;7.226;2023-04-10T02:39:00;7.60;99.90
21950;DHT22;11139;51.284;7.226;2023-04-10T02:41:26;7.60;99.90
21950;DHT22;11139;51.284;7.226;2023-04-10T02:43:51;7.60;99.90
21950;DHT22;11139;51.284;7.226;2023-04-10T02:46:17;7.60;99.90
21950;DHT22;11139;51.284;7.226;2023-04-10T02:48:42;7.60;99.90
21950;DHT22;11139;51.284;7.226;2023-04-10T02:51:08;7.60;99.90
21950;DHT22;11139;51.284;7.226;2023-04-10T02:53:33;7.60;99.90
21950;DHT22;11139;51.284;7.226;2023-04-10T02:55:59;7.60;99.90
21950;DHT22;11139;51.284;7.226;2023-04-10T02:58:24;7.60;99.90
21950;DHT22;11139;51.284;7.226;2023-04-10T03:00:50;7.60;99.90
21950;DHT22;11139;51.284;7.226;2023-04-10T03:03:17;7.60;99.90
21950;DHT22;11139;51.284;7.226;2023-04-10T03:05:43;7.60;99.90
21950;DHT22;11139;51.284;7.226;2023-04-10T03:08:14;7.60;99.90
21950;DHT22;11139;51.284;7.226;2023-04-10T03:10:42;7.60;99.90
21950;DHT22;11139;51.284;7.226;2023-04-10T03:13:08;7.50;99.90
21950;DHT22;11139;51.284;7.226;2023-04-10T03:15:33;7.50;99.90
21950;DHT22;11139;51.284;7.226;2023-04-10T03:17:59;7.50;99.90
21950;DHT22;11139;51.284;7.226;2023-04-10T03:20:24;7.60;99.90
21950;DHT22;11139;51.284;7.226;2023-04-10T03:22:50;7.50;99.90
21950;DHT22;11139;51.284;7.226;2023-04-10T03:25:15;7.50;99.90
21950;DHT22;11139;51.284;7.226;2023-04-10T03:27:41;7.50;99.90
21950;DHT22;11139;51.284;7.226;2023-04-10T03:30:07;7.50;99.90
21950;DHT22;11139;51.284;7.226;2023-04-10T03:32:32;7.50;99.90
21950;DHT22;11139;51.284;7.226;2023-04-10T03:34:58;7.50;99.90
21950;DHT22;11139;51.284;7.226;2023-04-10T03:37:23;7.50;99.90
21950;DHT22;11139;51.284;7.226;2023-04-10T03:39:49;7.60;99.90
21950;DHT22;11139;51.284;7.226;2023-04-10T03:42:15;7.60;99.90
21950;DHT22;11139;51.284;7.226;2023-04-10T03:44:40;7.50;99.90
21950;DHT22;11139;51.284;7.226;2023-04-10T03:47:06;7.60;99.90
21950;DHT22;11139;51.284;7.226;2023-04-10T03:49:31;7.50;99.90
21950;DHT22;11139;51.284;7.226;2023-04-10T03:51:57;7.50;99.90
21950;DHT22;11139;51.284;7.226;2023-04-10T03:54:22;7.60;99.90
21950;DHT22;11139;51.284;7.226;2023-04-10T03:56:48;7.60;99.90
21950;DHT22;11139;51.284;7.226;2023-04-10T03:59:13;7.60;99.90
21950;DHT22;11139;51.284;7.226;2023-04-10T04:01:39;7.60;99.90
21950;DHT22;11139;51.284;7.226;2023-04-10T04:04:05;7.60;99.90
21950;DHT22;11139;51.284;7.226;2023-04-10T04:06:30;7.60;99.90
21950;DHT22;11139;51.284;7.226;2023-04-10T04:08:56;7.60;99.90
21950;DHT22;11139;51.284;7.226;2023-04-10T04:11:21;7.60;99.90
21950;DHT22;11139;51.284;7.226;2023-04-10T04:13:47;7.60;99.90
21950;DHT22;11139;51.284;7.226;2023-04-10T04:16:12;7.60;99.90
21950;DHT22;11139;51.284;7.226;2023-04-10T04:18:38;7.60;99.90
21950;DHT22;11139;51.284;7.226;2023-04-10T04:21:03;7.60;99.90
21950;DHT22;11139;51.284;7.226;2023-04-10T04:23:29;7.60;99.90
21950;DHT22;11139;51.284;7.226;2023-04-10T04:25:55;7.60;99.90
21950;DHT22;11139;51.284;7.226;2023-04-10T04:28:21;7.60;99.90
21950;DHT22;11139;51.284;7.226;2023-04-10T04:30:47;7.60;99.90
21950;DHT22;11139;51.284;7.226;2023-04-10T04:33:12;7.60;99.90
21950;DHT22;11139;51.284;7.226;2023-04-10T04:35:38;7.60;99.90
21950;DHT22;11139;51.284;7.226;2023-04-10T04:38:03;7.60;99.90
21950;DHT22;11139;51.284;7.226;2023-04-10T04:40:29;7.60;99.90
21950;DHT22;11139;51.284;7.226;2023-04-10T04:42:54;7.60;99.90
21950;DHT22;11139;51.284;7.226;2023-04-10T04:45:20;7.60;99.90
21950;DHT22;11139;51.284;7.226;2023-04-10T04:47:46;7.60;99.90
21950;DHT22;11139;51.284;7.226;2023-04-10T04:50:11;7.60;99.90
21950;DHT22;11139;51.284;7.226;2023-04-10T04:52:37;7.60;99.90
21950;DHT22;11139;51.284;7.226;2023-04-10T04:55:03;7.60;99.90
21950;DHT22;11139;51.284;7.226;2023-04-10T04:57:28;7.60;99.90
21950;DHT22;11139;51.284;7.226;2023-04-10T04:59:54;7.60;99.90
21950;DHT22;11139;51.284;7.226;2023-04-10T05:02:19;7.60;99.90
21950;DHT22;11139;51.284;7.226;2023-04-10T05:04:47;7.60;99.90
21950;DHT22;11139;51.284;7.226;2023-04-10T05:07:12;7.60;99.90
21950;DHT22;11139;51.284;7.226;2023-04-10T05:09:38;7.60;99.90
21950;DHT22;11139;51.284;7.226;2023-04-10T05:12:03;7.60;99.90
21950;DHT22;11139;51.284;7.226;2023-04-10T05:14:29;7.60;99.90
21950;DHT22;11139;51.284;7.226;2023-04-10T05:16:54;7.60;99.90
21950;DHT22;11139;51.284;7.226;2023-04-10T05:19:20;7.60;99.90
21950;DHT22;11139;51.284;7.226;2023-04-10T05:21:45;7.60;99.90
21950;DHT22;11139;51.284;7.226;2023-04-10T05:24:11;7.60;99.90
21950;DHT22;11139;51.284;7.226;2023-04-10T05:26:36;7.60;99.90
21950;DHT22;11139;51.284;7.226;2023-04-10T05:29:02;7.60;99.90
21950;DHT22;11139;51.284;7.226;2023-04-10T05:31:28;7.60;99.90
21950;DHT22;11139;51.284;7.226;2023-04-10T05:33:53;7.60;99.90
21950;DHT22;11139;51.284;7.226;2023-04-10T05:36:19;7.60;99.90
21950;DHT22;11139;51.284;7.226;2023-04-10T05:38:44;7.60;99.90
21950;DHT22;11139;51.284;7.226;2023-04-10T05:41:10;7.60;99.90
21950;DHT22;11139;51.284;7.226;2023-04-10T05:43:35;7.60;99.90
21950;DHT22;11139;51.284;7.226;2023-04-10T05:46:01;7.60;99.90
21950;DHT22;11139;51.284;7.226;2023-04-10T05:48:26;7.60;99.90
21950;DHT22;11139;51.284;7.226;2023-04-10T05:50:53;7.60;99.90
21950;DHT22;11139;51.284;7.226;2023-04-10T05:53:19;7.60;99.90
21950;DHT22;11139;51.284;7.226;2023-04-10T05:55:48;7.60;99.90
21950;DHT22;11139;51.284;7.226;2023-04-10T05:58:15;7.60;99.90
21950;DHT22;11139;51.284;7.226;2023-04-10T06:00:41;7.60;99.90
21950;DHT22;11139;51.284;7.226;2023-04-10T06:03:06;7.60;99.90
21950;DHT22;11139;51.284;7.226;2023-04-10T06:05:32;7.60;99.90
21950;DHT22;11139;51.284;7.226;2023-04-10T06:07:57;7.60;99.90
21950;DHT22;11139;51.284;7.226;2023-04-10T06:10:23;7.60;99.90
21950;DHT22;11139;51.284;7.226;2023-04-10T06:12:48;7.60;99.90
21950;DHT22;11139;51.284;7.226;2023-04-10T06:15:14;7.60;99.90
21950;DHT22;11139;51.284;7.226;2023-04-10T06:17:42;7.70;99.90
21950;DHT22;11139;51.284;7.226;2023-04-10T06:20:08;7.60;99.90
21950;DHT22;11139;51.284;7.226;2023-04-10T06:22:34;7.60;99.90
21950;DHT22;11139;51.284;7.226;2023-04-10T06:25:00;7.60;99.90
21950;DHT22;11139;51.284;7.226;2023-04-10T06:27:26;7.70;99.90
21950;DHT22;11139;51.284;7.226;2023-04-10T06:29:51;7.70;99.90
21950;DHT22;11139;51.284;7.226;2023-04-10T06:32:17;7.70;99.90
21950;DHT22;11139;51.284;7.226;2023-04-10T06:34:42;7.70;99.90
21950;DHT22;11139;51.284;7.226;2023-04-10T06:37:08;7.60;99.90
21950;DHT22;11139;51.284;7.226;2023-04-10T06:39:33;7.70;99.90
21950;DHT22;11139;51.284;7.226;2023-04-10T06:41:58;7.70;99.90
21950;DHT22;11139;51.284;7.226;2023-04-10T06:44:25;7.70;99.90
21950;DHT22;11139;51.284;7.226;2023-04-10T06:46:50;7.60;99.90
21950;DHT22;11139;51.284;7.226;2023-04-10T06:49:16;7.70;99.90
21950;DHT22;11139;51.284;7.226;2023-04-10T06:51:41;7.70;99.90
21950;DHT22;11139;51.284;7.226;2023-04-10T06:54:07;7.70;99.90
21950;DHT22;11139;51.284;7.226;2023-04-10T06:56:32;7.70;99.90
21950;DHT22;11139;51.284;7.226;2023-04-10T06:58:58;7.70;99.90
21950;DHT22;11139;51.284;7.226;2023-04-10T07:01:23;7.70;99.90
21950;DHT22;11139;51.284;7.226;2023-04-10T07:03:49;7.70;99.90
21950;DHT22;11139;51.284;7.226;2023-04-10T07:06:14;7.80;99.90
21950;DHT22;11139;51.284;7.226;2023-04-10T07:08:40;7.80;99.90
21950;DHT22;11139;51.284;7.226;2023-04-10T07:11:05;7.80;99.90
21950;DHT22;11139;51.284;7.226;2023-04-10T07:13:31;7.70;99.90
21950;DHT22;11139;51.284;7.226;2023-04-10T07:15:57;7.80;99.90
21950;DHT22;11139;51.284;7.226;2023-04-10T07:18:22;7.70;99.90
21950;DHT22;11139;51.284;7.226;2023-04-10T07:20:49;7.80;99.90
21950;DHT22;11139;51.284;7.226;2023-04-10T07:23:15;7.80;99.90
21950;DHT22;11139;51.284;7.226;2023-04-10T07:25:41;7.80;99.90
21950;DHT22;11139;51.284;7.226;2023-04-10T07:28:06;7.80;99.90
21950;DHT22;11139;51.284;7.226;2023-04-10T07:30:32;7.90;99.90
21950;DHT22;11139;51.284;7.226;2023-04-10T07:32:57;7.80;99.90
21950;DHT22;11139;51.284;7.226;2023-04-10T07:35:23;7.90;99.90
21950;DHT22;11139;51.284;7.226;2023-04-10T07:37:48;8.00;99.90
21950;DHT22;11139;51.284;7.226;2023-04-10T07:40:16;8.00;99.90
21950;DHT22;11139;51.284;7.226;2023-04-10T07:42:41;8.10;99.90
21950;DHT22;11139;51.284;7.226;2023-04-10T07:45:07;8.10;99.90
21950;DHT22;11139;51.284;7.226;2023-04-10T07:47:34;8.10;99.90
21950;DHT22;11139;51.284;7.226;2023-04-10T07:50:00;8.20;99.90
21950;DHT22;11139;51.284;7.226;2023-04-10T07:52:25;8.20;99.90
21950;DHT22;11139;51.284;7.226;2023-04-10T07:54:51;8.30;99.90
21950;DHT22;11139;51.284;7.226;2023-04-10T07:57:16;8.30;99.90
21950;DHT22;11139;51.284;7.226;2023-04-10T07:59:42;8.40;99.90
21950;DHT22;11139;51.284;7.226;2023-04-10T08:02:07;8.40;99.90
21950;DHT22;11139;51.284;7.226;2023-04-10T08:04:33;8.40;99.90
21950;DHT22;11139;51.284;7.226;2023-04-10T08:06:58;8.40;99.90
21950;DHT22;11139;51.284;7.226;2023-04-10T08:09:24;8.40;99.90
21950;DHT22;11139;51.284;7.226;2023-04-10T08:11:49;8.40;99.90
21950;DHT22;11139;51.284;7.226;2023-04-10T08:14:15;8.50;99.90
21950;DHT22;11139;51.284;7.226;2023-04-10T08:16:40;8.50;99.90
21950;DHT22;11139;51.284;7.226;2023-04-10T08:19:06;8.50;99.90
21950;DHT22;11139;51.284;7.226;2023-04-10T08:21:31;8.50;99.90
21950;DHT22;11139;51.284;7.226;2023-04-10T08:23:57;8.50;99.90
21950;DHT22;11139;51.284;7.226;2023-04-10T08:26:24;8.50;99.90
21950;DHT22;11139;51.284;7.226;2023-04-10T08:28:50;8.50;99.90
21950;DHT22;11139;51.284;7.226;2023-04-10T08:31:19;8.50;99.90
21950;DHT22;11139;51.284;7.226;2023-04-10T08:33:45;8.50;99.90
21950;DHT22;11139;51.284;7.226;2023-04-10T08:36:11;8.60;99.90
21950;DHT22;11139;51.284;7.226;2023-04-10T08:38:40;8.50;99.90
21950;DHT22;11139;51.284;7.226;2023-04-10T08:41:08;8.50;99.90
21950;DHT22;11139;51.284;7.226;2023-04-10T08:43:34;8.60;99.90
21950;DHT22;11139;51.284;7.226;2023-04-10T08:46:00;8.60;99.90
21950;DHT22;11139;51.284;7.226;2023-04-10T08:48:34;8.70;99.90
21950;DHT22;11139;51.284;7.226;2023-04-10T08:51:00;8.70;99.90
21950;DHT22;11139;51.284;7.226;2023-04-10T08:53:27;8.70;99.90
21950;DHT22;11139;51.284;7.226;2023-04-10T08:55:55;8.80;99.90
21950;DHT22;11139;51.284;7.226;2023-04-10T08:58:20;8.80;99.90
21950;DHT22;11139;51.284;7.226;2023-04-10T09:00:46;8.70;99.90
21950;DHT22;11139;51.284;7.226;2023-04-10T09:03:13;8.70;99.90
21950;DHT22;11139;51.284;7.226;2023-04-10T09:05:39;8.80;99.90
21950;DHT22;11139;51.284;7.226;2023-04-10T09:08:06;8.80;99.90
21950;DHT22;11139;51.284;7.226;2023-04-10T09:10:31;8.90;99.90
21950;DHT22;11139;51.284;7.226;2023-04-10T09:12:57;8.90;99.90
21950;DHT22;11139;51.284;7.226;2023-04-10T09:15:22;8.90;99.90
21950;DHT22;11139;51.284;7.226;2023-04-10T09:20:20;8.90;99.90
21950;DHT22;11139;51.284;7.226;2023-04-10T09:22:46;9.00;99.90
21950;DHT22;11139;51.284;7.226;2023-04-10T09:25:27;9.00;99.90
21950;DHT22;11139;51.284;7.226;2023-04-10T09:27:58;9.00;99.90
21950;DHT22;11139;51.284;7.226;2023-04-10T09:30:31;9.00;99.90
21950;DHT22;11139;51.284;7.226;2023-04-10T09:32:57;8.90;99.90
21950;DHT22;11139;51.284;7.226;2023-04-10T09:35:23;9.00;99.90
21950;DHT22;11139;51.284;7.226;2023-04-10T09:37:48;9.00;99.90
21950;DHT22;11139;51.284;7.226;2023-04-10T09:40:23;9.10;99.90
21950;DHT22;11139;51.284;7.226;2023-04-10T09:42:49;9.10;99.90
21950;DHT22;11139;51.284;7.226;2023-04-10T09:45:15;9.10;99.90
21950;DHT22;11139;51.284;7.226;2023-04-10T09:47:59;9.10;99.90
21950;DHT22;11139;51.284;7.226;2023-04-10T09:50:35;9.10;99.90
21950;DHT22;11139;51.284;7.226;2023-04-10T09:53:00;9.10;99.90
21950;DHT22;11139;51.284;7.226;2023-04-10T09:55:26;9.20;99.90
21950;DHT22;11139;51.284;7.226;2023-04-10T09:57:52;9.20;99.90
21950;DHT22;11139;51.284;7.226;2023-04-10T10:00:18;9.20;99.90
21950;DHT22;11139;51.284;7.226;2023-04-10T10:02:44;9.20;99.90
21950;DHT22;11139;51.284;7.226;2023-04-10T10:05:10;9.30;99.90
21950;DHT22;11139;51.284;7.226;2023-04-10T10:07:35;9.30;99.90
21950;DHT22;11139;51.284;7.226;2023-04-10T10:10:02;9.30;99.90
21950;DHT22;11139;51.284;7.226;2023-04-10T10:12:42;9.30;99.90
21950;DHT22;11139;51.284;7.226;2023-04-10T10:17:37;9.30;99.90
21950;DHT22;11139;51.284;7.226;2023-04-10T10:20:04;9.30;99.90
21950;DHT22;11139;51.284;7.226;2023-04-10T10:22:32;9.40;99.90
21950;DHT22;11139;51.284;7.226;2023-04-10T10:24:58;9.50;99.90
21950;DHT22;11139;51.284;7.226;2023-04-10T10:27:25;9.50;99.90
21950;DHT22;11139;51.284;7.226;2023-04-10T10:29:52;9.50;99.90
21950;DHT22;11139;51.284;7.226;2023-04-10T10:32:17;9.50;99.90
21950;DHT22;11139;51.284;7.226;2023-04-10T10:34:43;9.50;99.90
21950;DHT22;11139;51.284;7.226;2023-04-10T10:37:10;9.50;99.90
21950;DHT22;11139;51.284;7.226;2023-04-10T10:42:32;9.60;99.90
21950;DHT22;11139;51.284;7.226;2023-04-10T10:47:28;9.70;99.90
21950;DHT22;11139;51.284;7.226;2023-04-10T10:49:55;9.70;99.90
21950;DHT22;11139;51.284;7.226;2023-04-10T10:57:55;9.70;99.90
21950;DHT22;11139;51.284;7.226;2023-04-10T11:00:24;9.80;99.90
21950;DHT22;11139;51.284;7.226;2023-04-10T11:05:49;9.90;99.90
21950;DHT22;11139;51.284;7.226;2023-04-10T11:11:09;10.00;99.90
21950;DHT22;11139;51.284;7.226;2023-04-10T11:13:35;10.00;99.90
21950;DHT22;11139;51.284;7.226;2023-04-10T11:16:01;10.10;99.90
21950;DHT22;11139;51.284;7.226;2023-04-10T11:19:12;10.10;99.90
21950;DHT22;11139;51.284;7.226;2023-04-10T11:31:28;10.10;99.90
21950;DHT22;11139;51.284;7.226;2023-04-10T11:36:26;10.10;99.90
21950;DHT22;11139;51.284;7.226;2023-04-10T11:41:29;10.10;99.90
21950;DHT22;11139;51.284;7.226;2023-04-10T11:43:56;10.20;99.90
21950;DHT22;11139;51.284;7.226;2023-04-10T11:46:21;10.30;99.90
21950;DHT22;11139;51.284;7.226;2023-04-10T11:48:51;10.30;99.90
21950;DHT22;11139;51.284;7.226;2023-04-10T11:51:16;10.20;99.90
21950;DHT22;11139;51.284;7.226;2023-04-10T11:53:44;10.30;99.90
21950;DHT22;11139;51.284;7.226;2023-04-10T11:56:17;10.30;99.90
21950;DHT22;11139;51.284;7.226;2023-04-10T11:58:43;10.30;99.90
21950;DHT22;11139;51.284;7.226;2023-04-10T12:01:08;10.30;99.90
21950;DHT22;11139;51.284;7.226;2023-04-10T12:06:13;10.30;99.90
21950;DHT22;11139;51.284;7.226;2023-04-10T12:08:43;10.30;99.90
21950;DHT22;11139;51.284;7.226;2023-04-10T12:11:23;10.30;99.90
21950;DHT22;11139;51.284;7.226;2023-04-10T12:13:53;10.30;99.90
21950;DHT22;11139;51.284;7.226;2023-04-10T12:16:19;10.30;99.90
21950;DHT22;11139;51.284;7.226;2023-04-10T12:18:45;10.30;99.90
21950;DHT22;11139;51.284;7.226;2023-04-10T12:21:11;10.30;99.90
21950;DHT22;11139;51.284;7.226;2023-04-10T12:23:37;10.20;99.90
21950;DHT22;11139;51.284;7.226;2023-04-10T12:28:34;10.30;99.90
21950;DHT22;11139;51.284;7.226;2023-04-10T12:31:00;10.20;99.90
21950;DHT22;11139;51.284;7.226;2023-04-10T12:33:25;10.30;99.90
21950;DHT22;11139;51.284;7.226;2023-04-10T12:35:51;10.30;99.90
21950;DHT22;11139;51.284;7.226;2023-04-10T12:41:01;10.30;99.90
21950;DHT22;11139;51.284;7.226;2023-04-10T12:43:30;10.30;99.90
21950;DHT22;11139;51.284;7.226;2023-04-10T12:45:57;10.30;99.90
21950;DHT22;11139;51.284;7.226;2023-04-10T12:48:22;10.30;99.90
21950;DHT22;11139;51.284;7.226;2023-04-10T12:50:48;10.30;99.90
21950;DHT22;11139;51.284;7.226;2023-04-10T12:53:13;10.20;99.90
21950;DHT22;11139;51.284;7.226;2023-04-10T12:55:39;10.30;99.90
21950;DHT22;11139;51.284;7.226;2023-04-10T12:58:17;10.20;99.90
21950;DHT22;11139;51.284;7.226;2023-04-10T13:00:47;10.20;99.90
21950;DHT22;11139;51.284;7.226;2023-04-10T13:03:12;10.30;99.90
21950;DHT22;11139;51.284;7.226;2023-04-10T13:05:38;10.30;99.90
21950;DHT22;11139;51.284;7.226;2023-04-10T13:08:03;10.30;99.90
21950;DHT22;11139;51.284;7.226;2023-04-10T13:10:29;10.30;99.90
21950;DHT22;11139;51.284;7.226;2023-04-10T13:12:54;10.30;99.90
21950;DHT22;11139;51.284;7.226;2023-04-10T13:15:20;10.30;99.90
21950;DHT22;11139;51.284;7.226;2023-04-10T13:17:46;10.30;99.90
21950;DHT22;11139;51.284;7.226;2023-04-10T13:20:11;10.40;99.90
21950;DHT22;11139;51.284;7.226;2023-04-10T13:22:37;10.40;99.90
21950;DHT22;11139;51.284;7.226;2023-04-10T13:25:03;10.40;99.90
21950;DHT22;11139;51.284;7.226;2023-04-10T13:27:29;10.40;99.90
21950;DHT22;11139;51.284;7.226;2023-04-10T13:29:54;10.40;99.90
21950;DHT22;11139;51.284;7.226;2023-04-10T13:32:20;10.40;99.90
21950;DHT22;11139;51.284;7.226;2023-04-10T13:34:45;10.30;99.90
21950;DHT22;11139;51.284;7.226;2023-04-10T13:37:11;10.30;99.90
21950;DHT22;11139;51.284;7.226;2023-04-10T13:39:39;10.30;99.90
21950;DHT22;11139;51.284;7.226;2023-04-10T13:42:05;10.30;99.90
21950;DHT22;11139;51.284;7.226;2023-04-10T13:44:30;10.30;99.90
21950;DHT22;11139;51.284;7.226;2023-04-10T13:46:56;10.30;99.90
21950;DHT22;11139;51.284;7.226;2023-04-10T13:49:24;10.30;99.90
21950;DHT22;11139;51.284;7.226;2023-04-10T13:51:50;10.30;99.90
21950;DHT22;11139;51.284;7.226;2023-04-10T13:54:15;10.80;99.90
21950;DHT22;11139;51.284;7.226;2023-04-10T13:56:41;11.10;99.90
21950;DHT22;11139;51.284;7.226;2023-04-10T13:59:07;11.20;99.90
21950;DHT22;11139;51.284;7.226;2023-04-10T14:01:32;11.10;99.90
21950;DHT22;11139;51.284;7.226;2023-04-10T14:03:58;11.10;99.90
21950;DHT22;11139;51.284;7.226;2023-04-10T14:06:23;11.10;99.90
21950;DHT22;11139;51.284;7.226;2023-04-10T14:08:49;11.00;99.90
21950;DHT22;11139;51.284;7.226;2023-04-10T14:11:14;11.00;99.90
21950;DHT22;11139;51.284;7.226;2023-04-10T14:13:40;11.00;99.90
21950;DHT22;11139;51.284;7.226;2023-04-10T14:16:06;11.00;99.90
21950;DHT22;11139;51.284;7.226;2023-04-10T14:18:32;11.00;99.90
21950;DHT22;11139;51.284;7.226;2023-04-10T14:20:57;11.00;99.90
21950;DHT22;11139;51.284;7.226;2023-04-10T14:23:23;11.00;99.90
21950;DHT22;11139;51.284;7.226;2023-04-10T14:25:48;11.00;99.90
21950;DHT22;11139;51.284;7.226;2023-04-10T14:28:14;11.00;99.90
21950;DHT22;11139;51.284;7.226;2023-04-10T14:30:43;11.00;99.90
21950;DHT22;11139;51.284;7.226;2023-04-10T14:33:09;11.00;99.90
21950;DHT22;11139;51.284;7.226;2023-04-10T14:35:35;11.00;99.90
21950;DHT22;11139;51.284;7.226;2023-04-10T14:38:00;11.00;99.90
21950;DHT22;11139;51.284;7.226;2023-04-10T14:40:26;11.00;99.90
21950;DHT22;11139;51.284;7.226;2023-04-10T14:42:52;10.90;99.90
21950;DHT22;11139;51.284;7.226;2023-04-10T14:45:17;10.90;99.90
21950;DHT22;11139;51.284;7.226;2023-04-10T14:47:44;10.90;99.90
21950;DHT22;11139;51.284;7.226;2023-04-10T14:50:09;10.90;99.90
21950;DHT22;11139;51.284;7.226;2023-04-10T14:52:35;10.90;99.90
21950;DHT22;11139;51.284;7.226;2023-04-10T14:55:01;11.00;99.90
21950;DHT22;11139;51.284;7.226;2023-04-10T14:57:26;11.00;99.90
21950;DHT22;11139;51.284;7.226;2023-04-10T14:59:54;11.10;99.90
21950;DHT22;11139;51.284;7.226;2023-04-10T15:02:19;11.10;99.90
21950;DHT22;11139;51.284;7.226;2023-04-10T15:04:45;11.10;99.90
21950;DHT22;11139;51.284;7.226;2023-04-10T15:07:11;11.10;99.90
21950;DHT22;11139;51.284;7.226;2023-04-10T15:09:37;11.00;99.90
21950;DHT22;11139;51.284;7.226;2023-04-10T15:12:02;11.00;99.90
21950;DHT22;11139;51.284;7.226;2023-04-10T15:14:28;11.00;99.90
21950;DHT22;11139;51.284;7.226;2023-04-10T15:16:53;11.00;99.90
21950;DHT22;11139;51.284;7.226;2023-04-10T15:19:19;11.00;99.90
21950;DHT22;11139;51.284;7.226;2023-04-10T15:21:45;11.00;99.90
21950;DHT22;11139;51.284;7.226;2023-04-10T15:24:10;11.00;99.90
21950;DHT22;11139;51.284;7.226;2023-04-10T15:26:36;11.00;99.90
21950;DHT22;11139;51.284;7.226;2023-04-10T15:29:06;11.10;99.90
21950;DHT22;11139;51.284;7.226;2023-04-10T15:31:32;11.20;99.90
21950;DHT22;11139;51.284;7.226;2023-04-10T15:33:57;11.20;99.90
21950;DHT22;11139;51.284;7.226;2023-04-10T15:36:23;11.30;99.90
21950;DHT22;11139;51.284;7.226;2023-04-10T15:38:48;11.30;99.90
21950;DHT22;11139;51.284;7.226;2023-04-10T15:41:14;11.30;99.90
21950;DHT22;11139;51.284;7.226;2023-04-10T15:43:39;11.30;99.90
21950;DHT22;11139;51.284;7.226;2023-04-10T15:46:06;11.30;99.90
21950;DHT22;11139;51.284;7.226;2023-04-10T15:48:32;11.30;99.90
21950;DHT22;11139;51.284;7.226;2023-04-10T15:50:58;11.40;99.90
21950;DHT22;11139;51.284;7.226;2023-04-10T15:53:23;11.40;99.90
21950;DHT22;11139;51.284;7.226;2023-04-10T15:55:49;11.40;99.90
21950;DHT22;11139;51.284;7.226;2023-04-10T15:58:15;11.50;99.90
21950;DHT22;11139;51.284;7.226;2023-04-10T16:00:40;12.30;99.90
21950;DHT22;11139;51.284;7.226;2023-04-10T16:03:06;12.50;99.90
21950;DHT22;11139;51.284;7.226;2023-04-10T16:05:31;12.50;99.90
21950;DHT22;11139;51.284;7.226;2023-04-10T16:07:57;12.40;99.90
21950;DHT22;11139;51.284;7.226;2023-04-10T16:10:22;12.50;99.90
21950;DHT22;11139;51.284;7.226;2023-04-10T16:12:48;12.60;99.90
21950;DHT22;11139;51.284;7.226;2023-04-10T16:15:13;12.70;99.90
21950;DHT22;11139;51.284;7.226;2023-04-10T16:17:39;12.80;99.90
21950;DHT22;11139;51.284;7.226;2023-04-10T16:20:04;12.80;99.90
21950;DHT22;11139;51.284;7.226;2023-04-10T16:22:30;12.80;99.90
21950;DHT22;11139;51.284;7.226;2023-04-10T16:24:56;12.90;99.90
21950;DHT22;11139;51.284;7.226;2023-04-10T16:27:25;12.80;99.90
21950;DHT22;11139;51.284;7.226;2023-04-10T16:29:50;12.70;99.90